Gas Grouper — V7TZ2 — position and weather

sailwx.info

Track history (hours):
 
Tides and Currents Weather Stations Pressure Air Temp Water Temp Dewpoint Dewpoint Depression Visibility Wind Speed Wind Dir Waves Ship Positions

Gas Grouper

Last reported at 2014-Jul-24 20:07 UTC. Time now 2014-Jul-26 19:20 UTC.
Position N 46°34' E 031°00'.

Length 174 m; draft 6.5 m.

Type: Tanker. MMSI: 538003910.

Date/timePositionNaut miles runAvg speedWind from/ knotsBaromVisibWave heightAir tempDewpointWater temp
2014-Jul-24 20:07N 46°34' E 031°00'2 3.9
2014-Jul-24 19:32N 46°32' E 030°58'34310.1
2014-Jul-23 09:27N 40°60' E 028°60'1212.3
2014-Jul-23 08:29N 40°50' E 028°51'5 4.8
2014-Jul-23 07:32N 40°46' E 028°48'0 0.3
2014-Jul-23 06:32N 40°46' E 028°48'0 0.3
2014-Jul-23 05:33N 40°46' E 028°49'0 0.4
2014-Jul-23 04:33N 40°46' E 028°49'0 0.3
2014-Jul-23 03:32N 40°46' E 028°49'0 0.3
2014-Jul-23 02:32N 40°46' E 028°50'0 0.4
2014-Jul-23 01:26N 40°46' E 028°50'1 0.6
2014-Jul-23 00:30N 40°47' E 028°50'1 0.5
2014-Jul-22 22:20N 40°46' E 028°50'0 0.6
2014-Jul-22 21:33N 40°46' E 028°50'2 0.9
2014-Jul-22 19:14N 40°47' E 028°53'1 1.2
2014-Jul-22 18:22N 40°47' E 028°54'1 1.3
2014-Jul-22 17:33N 40°48' E 028°55'1 1.3
2014-Jul-22 16:29N 40°49' E 028°56'6 6.3
2014-Jul-22 15:33N 40°44' E 028°60'1 0.6
2014-Jul-22 14:33N 40°44' E 028°59'151 3.3
2014-Jul-20 17:18N 39°51' E 025°55'153 8.2
2014-Jul-19 22:32N 37°34' E 024°26'2315.9
2014-Jul-19 21:04N 37°14' E 024°11'916.0
2014-Jul-19 20:29N 37°05' E 024°08'1516.3
2014-Jul-19 19:33N 36°51' E 024°02'1916.2
2014-Jul-19 18:22N 36°35' E 023°48'4916.6
2014-Jul-19 15:25N 35°60' E 023°06'38116.6
2014-Jul-18 16:33N 36°10' E 015°15'1515.1
2014-Jul-18 15:33N 36°14' E 014°57'1515.4
2014-Jul-18 14:33N 36°19' E 014°39'1515.4
2014-Jul-18 13:33N 36°23' E 014°21'1515.1
2014-Jul-18 12:33N 36°27' E 014°03'1515.0
2014-Jul-18 11:33N 36°31' E 013°44'1515.0
2014-Jul-18 10:34N 36°36' E 013°27'1615.5
2014-Jul-18 09:33N 36°40' E 013°08'1616.3
2014-Jul-18 08:33N 36°44' E 012°49'27814.6
2014-Jul-17 13:33N 37°17' E 007°03'1515.1
2014-Jul-17 12:33N 37°16' E 006°44'1514.8
2014-Jul-17 11:33N 37°16' E 006°25'1714.4
2014-Jul-17 10:21N 37°17' E 006°03'1314.7
2014-Jul-17 09:29N 37°17' E 005°47'1415.0
2014-Jul-17 08:31N 37°17' E 005°29'1615.0
2014-Jul-17 07:26N 37°16' E 005°09'1415.0
2014-Jul-17 06:30N 37°17' E 004°51'2914.7
2014-Jul-17 04:33N 37°17' E 004°15'1615.3
2014-Jul-17 03:31N 37°14' E 003°55'1615.5
2014-Jul-17 02:30N 37°12' E 003°36'1614.9
2014-Jul-17 01:27N 37°09' E 003°17'1414.6
2014-Jul-17 00:30N 37°06' E 002°60'1414.9
2014-Jul-16 23:33N 37°04' E 002°42'3115.6
2014-Jul-16 21:33N 36°58' E 002°04'1514.6
2014-Jul-16 20:33N 36°55' E 001°46'1514.2
2014-Jul-16 19:32N 36°52' E 001°28'1514.5
2014-Jul-16 18:28N 36°49' E 001°09'1314.5
2014-Jul-16 17:33N 36°47' E 000°53'1414.4
2014-Jul-16 16:33N 36°44' E 000°35'1414.4
2014-Jul-16 15:33N 36°42' E 000°17'2914.5
2014-Jul-16 13:34N 36°36' W 000°18'1614.3
2014-Jul-16 12:29N 36°33' W 000°37'1516.0
2014-Jul-16 11:33N 36°31' W 000°55'3214.0
2014-Jul-16 09:17N 36°25' W 001°34'1513.8
2014-Jul-16 08:10N 36°22' W 001°53'913.9
2014-Jul-16 07:32N 36°20' W 002°03'1514.1
2014-Jul-16 06:29N 36°18' W 002°21'152 7.6
2014-Jul-15 10:30N 35°58' W 005°28'5813.9
2014-Jul-15 06:20N 35°35' W 006°34'1815.1
2014-Jul-15 05:08N 35°22' W 006°48'1315.2
2014-Jul-15 04:16N 35°12' W 006°59'2615.0
2014-Jul-15 02:33N 34°53' W 007°20'1514.8
2014-Jul-15 01:31N 34°42' W 007°33'1414.8
2014-Jul-15 00:33N 34°31' W 007°44'1514.6
2014-Jul-14 23:33N 34°20' W 007°55'4613.9
2014-Jul-14 20:15N 33°44' W 008°30'  
Track history (hours):
 
Tides and Currents Weather Stations Pressure Air Temp Water Temp Dewpoint Dewpoint Depression Visibility Wind Speed Wind Dir Waves Ship Positions

Gas Grouper

Last reported at 2014-Jul-24 20:07 UTC. Time now 2014-Jul-26 19:20 UTC.
Position N 46°34' E 031°00'.

Length 174 m; draft 6.5 m.

Type: Tanker. MMSI: 538003910.

Date/timePositionNaut miles runAvg speedWind from/ knotsBaromVisibWave heightAir tempDewpointWater temp
2014-Jul-24 20:07N 46°34' E 031°00'2 3.9
2014-Jul-24 19:32N 46°32' E 030°58'34310.1
2014-Jul-23 09:27N 40°60' E 028°60'1212.3
2014-Jul-23 08:29N 40°50' E 028°51'5 4.8
2014-Jul-23 07:32N 40°46' E 028°48'0 0.3
2014-Jul-23 06:32N 40°46' E 028°48'0 0.3
2014-Jul-23 05:33N 40°46' E 028°49'0 0.4
2014-Jul-23 04:33N 40°46' E 028°49'0 0.3
2014-Jul-23 03:32N 40°46' E 028°49'0 0.3
2014-Jul-23 02:32N 40°46' E 028°50'0 0.4
2014-Jul-23 01:26N 40°46' E 028°50'1 0.6
2014-Jul-23 00:30N 40°47' E 028°50'1 0.5
2014-Jul-22 22:20N 40°46' E 028°50'0 0.6
2014-Jul-22 21:33N 40°46' E 028°50'2 0.9
2014-Jul-22 19:14N 40°47' E 028°53'1 1.2
2014-Jul-22 18:22N 40°47' E 028°54'1 1.3
2014-Jul-22 17:33N 40°48' E 028°55'1 1.3
2014-Jul-22 16:29N 40°49' E 028°56'6 6.3
2014-Jul-22 15:33N 40°44' E 028°60'1 0.6
2014-Jul-22 14:33N 40°44' E 028°59'151 3.3
2014-Jul-20 17:18N 39°51' E 025°55'153 8.2
2014-Jul-19 22:32N 37°34' E 024°26'2315.9
2014-Jul-19 21:04N 37°14' E 024°11'916.0
2014-Jul-19 20:29N 37°05' E 024°08'1516.3
2014-Jul-19 19:33N 36°51' E 024°02'1916.2
2014-Jul-19 18:22N 36°35' E 023°48'4916.6
2014-Jul-19 15:25N 35°60' E 023°06'38116.6
2014-Jul-18 16:33N 36°10' E 015°15'1515.1
2014-Jul-18 15:33N 36°14' E 014°57'1515.4
2014-Jul-18 14:33N 36°19' E 014°39'1515.4
2014-Jul-18 13:33N 36°23' E 014°21'1515.1
2014-Jul-18 12:33N 36°27' E 014°03'1515.0
2014-Jul-18 11:33N 36°31' E 013°44'1515.0
2014-Jul-18 10:34N 36°36' E 013°27'1615.5
2014-Jul-18 09:33N 36°40' E 013°08'1616.3
2014-Jul-18 08:33N 36°44' E 012°49'27814.6
2014-Jul-17 13:33N 37°17' E 007°03'1515.1
2014-Jul-17 12:33N 37°16' E 006°44'1514.8
2014-Jul-17 11:33N 37°16' E 006°25'1714.4
2014-Jul-17 10:21N 37°17' E 006°03'1314.7
2014-Jul-17 09:29N 37°17' E 005°47'1415.0
2014-Jul-17 08:31N 37°17' E 005°29'1615.0
2014-Jul-17 07:26N 37°16' E 005°09'1415.0
2014-Jul-17 06:30N 37°17' E 004°51'2914.7
2014-Jul-17 04:33N 37°17' E 004°15'1615.3
2014-Jul-17 03:31N 37°14' E 003°55'1615.5
2014-Jul-17 02:30N 37°12' E 003°36'1614.9
2014-Jul-17 01:27N 37°09' E 003°17'1414.6
2014-Jul-17 00:30N 37°06' E 002°60'1414.9
2014-Jul-16 23:33N 37°04' E 002°42'3115.6
2014-Jul-16 21:33N 36°58' E 002°04'1514.6
2014-Jul-16 20:33N 36°55' E 001°46'1514.2
2014-Jul-16 19:32N 36°52' E 001°28'1514.5
2014-Jul-16 18:28N 36°49' E 001°09'1314.5
2014-Jul-16 17:33N 36°47' E 000°53'1414.4
2014-Jul-16 16:33N 36°44' E 000°35'1414.4
2014-Jul-16 15:33N 36°42' E 000°17'2914.5
2014-Jul-16 13:34N 36°36' W 000°18'1614.3
2014-Jul-16 12:29N 36°33' W 000°37'1516.0
2014-Jul-16 11:33N 36°31' W 000°55'3214.0
2014-Jul-16 09:17N 36°25' W 001°34'1513.8
2014-Jul-16 08:10N 36°22' W 001°53'913.9
2014-Jul-16 07:32N 36°20' W 002°03'1514.1
2014-Jul-16 06:29N 36°18' W 002°21'152 7.6
2014-Jul-15 10:30N 35°58' W 005°28'5813.9
2014-Jul-15 06:20N 35°35' W 006°34'1815.1
2014-Jul-15 05:08N 35°22' W 006°48'1315.2
2014-Jul-15 04:16N 35°12' W 006°59'2615.0
2014-Jul-15 02:33N 34°53' W 007°20'1514.8
2014-Jul-15 01:31N 34°42' W 007°33'1414.8
2014-Jul-15 00:33N 34°31' W 007°44'1514.6
2014-Jul-14 23:33N 34°20' W 007°55'4613.9
2014-Jul-14 20:15N 33°44' W 008°30'  

Dump ship's entire track history